Time;durP1;ratioP1;P1;durP2;ratioP2;P2;SDS_P1;SDS_P2;PMS_P1;PMS_P2;Temp;Humidity;BMP_temperature;BMP_pressure;BME280_temperature;BME280_humidity;BME280_pressure;Samples;Min_cycle;Max_cycle;Signal;HPM_P1;HPM_P2
2023/02/17 00:01:14;;;;;;;31.33;17.92;;;9.10;95.40;;;;;;5016096;28;20037;-66
2023/02/17 00:03:40;;;;;;;33.95;17.08;;;9.10;96.00;;;;;;5018924;28;20602;-66
2023/02/17 00:06:07;;;;;;;32.05;16.20;;;9.00;96.30;;;;;;5011361;28;20034;-66
2023/02/17 00:08:33;;;;;;;33.60;17.33;;;9.00;96.30;;;;;;5013300;28;20095;-66
2023/02/17 00:10:59;;;;;;;33.97;17.63;;;9.10;96.50;;;;;;5013557;28;20033;-66
2023/02/17 00:13:25;;;;;;;33.00;17.88;;;9.20;96.10;;;;;;5011013;28;20034;-66
2023/02/17 00:15:51;;;;;;;30.63;18.00;;;9.30;96.00;;;;;;5018596;28;20052;-66
2023/02/17 00:18:17;;;;;;;37.13;18.50;;;9.30;95.90;;;;;;5014570;28;20040;-66
2023/02/17 00:20:43;;;;;;;33.10;17.98;;;9.30;96.00;;;;;;5011653;28;20489;-66
2023/02/17 00:23:09;;;;;;;31.88;17.60;;;9.40;96.10;;;;;;5012345;28;20042;-66
2023/02/17 00:25:37;;;;;;;31.52;19.08;;;9.40;96.00;;;;;;5015805;28;20048;-66
2023/02/17 00:28:03;;;;;;;33.47;17.85;;;9.50;96.00;;;;;;5011091;28;20042;-66
2023/02/17 00:30:28;;;;;;;34.05;17.20;;;9.40;96.00;;;;;;5018441;28;20438;-66
2023/02/17 00:32:54;;;;;;;32.50;18.17;;;9.40;96.90;;;;;;5012418;28;20052;-67
2023/02/17 00:35:20;;;;;;;37.50;18.75;;;9.30;97.00;;;;;;5020763;28;20121;-67
2023/02/17 00:37:46;;;;;;;32.38;17.92;;;9.20;97.20;;;;;;5018643;28;20025;-67
2023/02/17 00:40:15;;;;;;;34.38;17.13;;;9.20;97.30;;;;;;5001322;28;20839;-67
2023/02/17 00:42:41;;;;;;;32.53;17.85;;;9.20;97.30;;;;;;5016143;28;20599;-67
2023/02/17 00:45:07;;;;;;;31.25;18.25;;;9.20;97.30;;;;;;5020902;28;20037;-66
2023/02/17 00:47:33;;;;;;;35.88;17.70;;;9.10;97.40;;;;;;5017747;28;20683;-67
2023/02/17 00:49:59;;;;;;;37.03;18.83;;;9.10;97.70;;;;;;5019099;28;20025;-67
2023/02/17 00:52:26;;;;;;;33.33;18.05;;;9.10;97.90;;;;;;5015127;28;20025;-67
2023/02/17 00:54:51;;;;;;;36.38;18.65;;;9.00;97.90;;;;;;5013836;28;20025;-67
2023/02/17 00:57:17;;;;;;;33.30;17.75;;;9.00;98.20;;;;;;5019529;28;20038;-67
2023/02/17 00:59:43;;;;;;;34.83;18.30;;;9.00;98.20;;;;;;5013374;28;20086;-67
2023/02/17 01:02:09;;;;;;;37.13;18.92;;;9.10;98.10;;;;;;5017676;28;20025;-67
2023/02/17 01:04:35;;;;;;;33.53;18.25;;;9.10;97.90;;;;;;5016652;28;20060;-67
2023/02/17 01:07:01;;;;;;;37.80;18.95;;;9.30;97.80;;;;;;5018988;28;20475;-67
2023/02/17 01:09:27;;;;;;;34.05;18.55;;;9.30;97.60;;;;;;5013249;28;20029;-67
2023/02/17 01:11:52;;;;;;;36.60;18.77;;;9.30;97.60;;;;;;5019422;28;20029;-67
2023/02/17 01:14:18;;;;;;;33.78;18.48;;;9.30;97.60;;;;;;5019184;28;20053;-67
2023/02/17 01:16:47;;;;;;;35.22;17.77;;;9.30;97.60;;;;;;5011650;28;20026;-67
2023/02/17 01:19:16;;;;;;;35.17;18.42;;;9.30;97.50;;;;;;5014877;28;20038;-67
2023/02/17 01:21:46;;;;;;;36.70;19.80;;;9.20;97.70;;;;;;5016796;28;20039;-65
2023/02/17 01:24:12;;;;;;;35.22;19.85;;;9.10;98.00;;;;;;5015678;28;20742;-66
2023/02/17 01:26:38;;;;;;;32.58;18.77;;;9.10;98.30;;;;;;5022440;28;20033;-66
2023/02/17 01:29:05;;;;;;;37.72;18.63;;;9.00;98.50;;;;;;5018401;28;20040;-65
2023/02/17 01:31:31;;;;;;;38.00;19.25;;;9.00;98.60;;;;;;5023829;28;20037;-65
2023/02/17 01:34:01;;;;;;;34.75;18.30;;;9.00;98.60;;;;;;5013571;28;20107;-66
2023/02/17 01:36:28;;;;;;;33.08;18.23;;;9.00;98.80;;;;;;5020066;28;20088;-65
2023/02/17 01:38:54;;;;;;;36.22;18.05;;;9.00;98.60;;;;;;5013369;28;20091;-65
2023/02/17 01:41:25;;;;;;;35.72;19.48;;;9.00;98.80;;;;;;5017905;28;20112;-65
2023/02/17 01:44:07;;;;;;;35.17;18.58;;;9.00;98.70;;;;;;5013321;28;20050;-66
2023/02/17 01:46:37;;;;;;;32.83;17.80;;;9.10;98.50;;;;;;5009762;28;20109;-65
2023/02/17 01:49:27;;;;;;;37.45;19.52;;;9.20;98.30;;;;;;5014748;28;20034;-66
2023/02/17 01:52:17;;;;;;;39.13;19.98;;;9.20;98.40;;;;;;5011995;28;20053;-65
2023/02/17 01:54:49;;;;;;;38.45;20.25;;;9.10;98.50;;;;;;5015328;28;20441;-66
2023/02/17 01:57:19;;;;;;;34.92;18.60;;;9.00;98.90;;;;;;5010293;28;20545;-65
2023/02/17 01:59:45;;;;;;;40.28;20.67;;;8.90;99.40;;;;;;5017650;28;20017;-64
2023/02/17 02:02:12;;;;;;;34.55;18.30;;;8.90;99.60;;;;;;5009329;28;20383;-65
2023/02/17 02:04:44;;;;;;;42.13;20.20;;;8.90;99.60;;;;;;5014584;28;20059;-65
2023/02/17 02:07:15;;;;;;;40.53;19.88;;;9.00;99.60;;;;;;5014207;28;20039;-64
2023/02/17 02:09:48;;;;;;;37.20;18.88;;;9.00;99.40;;;;;;5027495;28;20103;-65
2023/02/17 02:12:20;;;;;;;46.97;21.10;;;8.90;99.70;;;;;;5011524;28;20405;-65
2023/02/17 02:14:47;;;;;;;41.92;20.30;;;9.00;99.90;;;;;;5013426;28;20030;-65
2023/02/17 02:17:17;;;;;;;39.53;20.45;;;9.00;99.80;;;;;;5010680;28;20045;-64
2023/02/17 02:19:58;;;;;;;38.08;18.88;;;8.90;99.80;;;;;;5016129;28;20112;-65
2023/02/17 02:23:21;;;;;;;37.70;19.27;;;8.80;99.90;;;;;;5026022;28;20044;-65
2023/02/17 02:26:10;;;;;;;43.15;20.58;;;8.80;99.90;;;;;;4916212;29;20042;-65
2023/02/17 02:28:51;;;;;;;44.58;21.02;;;8.70;99.90;;;;;;4930850;29;20407;-65
2023/02/17 02:31:37;;;;;;;38.38;19.90;;;8.70;99.90;;;;;;5000973;28;20151;-65
2023/02/17 02:34:11;;;;;;;40.88;19.98;;;8.70;99.90;;;;;;5008782;28;20046;-65
2023/02/17 02:36:47;;;;;;;42.33;21.33;;;8.70;99.90;;;;;;5008368;28;20056;-65
2023/02/17 02:39:20;;;;;;;43.88;21.55;;;8.70;99.90;;;;;;5009822;28;20030;-65
2023/02/17 02:41:51;;;;;;;43.85;21.85;;;8.70;99.90;;;;;;5009996;28;20040;-65
2023/02/17 02:44:19;;;;;;;43.55;22.20;;;8.60;99.90;;;;;;5012260;28;20632;-65
2023/02/17 02:46:54;;;;;;;41.38;21.73;;;8.50;99.90;;;;;;5015259;28;20033;-65
2023/02/17 02:49:21;;;;;;;42.45;21.70;;;8.40;99.90;;;;;;5009798;28;20030;-65
2023/02/17 02:51:55;;;;;;;42.42;22.60;;;8.40;99.90;;;;;;5010295;28;20927;-65
2023/02/17 02:55:00;;;;;;;46.80;21.88;;;8.40;99.90;;;;;;5016142;28;20034;-65
2023/02/17 02:57:58;;;;;;;48.78;23.30;;;8.50;99.90;;;;;;5010522;28;20144;-65
2023/02/17 03:00:28;;;;;;;42.50;22.88;;;8.50;99.90;;;;;;5008467;28;20044;-65
2023/02/17 03:03:20;;;;;;;45.20;22.05;;;8.50;99.90;;;;;;5008290;28;20497;-65
2023/02/17 03:06:01;;;;;;;42.60;23.35;;;8.50;99.90;;;;;;4996543;28;20065;-65
2023/02/17 03:09:03;;;;;;;44.53;20.90;;;8.30;99.90;;;;;;5016411;28;20029;-65
2023/02/17 03:11:32;;;;;;;43.75;21.52;;;8.40;99.90;;;;;;4997081;28;20067;-65
2023/02/17 03:14:06;;;;;;;43.13;21.33;;;8.50;99.90;;;;;;5013100;28;20038;-65
2023/02/17 03:16:34;;;;;;;45.38;23.33;;;8.50;99.90;;;;;;5009690;28;20818;-65
2023/02/17 03:19:00;;;;;;;42.70;21.50;;;8.40;99.90;;;;;;5014824;28;20226;-65
2023/02/17 03:21:33;;;;;;;45.83;22.85;;;8.50;99.90;;;;;;5011877;28;20029;-65
2023/02/17 03:23:59;;;;;;;43.67;22.48;;;8.50;99.90;;;;;;5010563;28;20100;-65
2023/02/17 03:26:25;;;;;;;49.97;24.98;;;8.40;99.90;;;;;;5017266;28;20037;-66
2023/02/17 03:28:51;;;;;;;47.17;23.83;;;8.20;99.90;;;;;;5016332;28;20032;-66
2023/02/17 03:31:17;;;;;;;50.17;24.58;;;8.20;99.90;;;;;;5015508;28;20037;-66
2023/02/17 03:33:42;;;;;;;53.38;26.08;;;8.30;99.90;;;;;;5019746;28;20032;-66
2023/02/17 03:36:08;;;;;;;52.70;24.70;;;8.20;99.90;;;;;;5017369;28;20103;-66
2023/02/17 03:38:34;;;;;;;51.33;26.05;;;8.20;99.90;;;;;;5015080;28;20025;-66
2023/02/17 03:41:00;;;;;;;54.35;24.92;;;8.20;99.90;;;;;;5016982;28;20042;-65
2023/02/17 03:43:26;;;;;;;51.00;25.92;;;8.20;99.90;;;;;;5017156;28;20319;-65
2023/02/17 03:45:51;;;;;;;51.40;25.55;;;8.20;99.90;;;;;;5015297;28;20029;-66
2023/02/17 03:48:17;;;;;;;57.63;26.52;;;8.20;99.90;;;;;;5015551;28;20381;-65
2023/02/17 03:50:43;;;;;;;50.75;24.35;;;8.20;99.90;;;;;;5019612;28;20707;-65
2023/02/17 03:53:10;;;;;;;55.72;26.45;;;8.20;99.90;;;;;;5013679;28;20663;-65
2023/02/17 03:55:37;;;;;;;60.05;26.65;;;8.10;99.90;;;;;;5018927;28;20099;-66
2023/02/17 03:58:03;;;;;;;58.40;25.98;;;8.00;99.90;;;;;;5018558;28;20033;-65
2023/02/17 04:00:29;;;;;;;62.58;27.63;;;8.10;99.90;;;;;;5012761;28;20923;-65
2023/02/17 04:02:58;;;;;;;59.80;27.95;;;8.10;99.90;;;;;;5014831;28;20029;-66
2023/02/17 04:05:24;;;;;;;63.47;26.60;;;8.00;99.90;;;;;;5014540;28;20142;-65
2023/02/17 04:07:51;;;;;;;58.05;26.33;;;8.10;99.90;;;;;;5015091;28;20072;-66
2023/02/17 04:10:17;;;;;;;60.65;26.92;;;8.10;99.90;;;;;;5016761;28;20042;-65
2023/02/17 04:12:43;;;;;;;58.47;25.95;;;8.10;99.90;;;;;;5020708;28;20041;-65
2023/02/17 04:15:09;;;;;;;62.80;26.63;;;8.10;99.90;;;;;;5015768;28;20398;-65
2023/02/17 04:17:37;;;;;;;58.15;27.05;;;8.20;99.90;;;;;;5013773;28;20179;-65
2023/02/17 04:20:05;;;;;;;59.92;25.35;;;8.40;99.90;;;;;;5018537;28;20057;-66
2023/02/17 04:22:30;;;;;;;52.70;25.48;;;8.40;99.90;;;;;;5011580;28;20619;-65
2023/02/17 04:24:56;;;;;;;50.92;25.50;;;8.40;99.90;;;;;;5012662;28;20057;-66
2023/02/17 04:27:22;;;;;;;53.40;26.35;;;8.40;99.90;;;;;;5012312;28;20189;-65
2023/02/17 04:29:47;;;;;;;52.92;25.95;;;8.40;99.90;;;;;;5015103;28;20136;-66
2023/02/17 04:32:13;;;;;;;54.35;27.33;;;8.50;99.90;;;;;;5017909;28;20065;-65
2023/02/17 04:34:39;;;;;;;57.90;26.08;;;8.40;99.90;;;;;;5018968;28;20029;-65
2023/02/17 04:37:05;;;;;;;56.53;25.73;;;8.40;99.90;;;;;;5015647;28;20096;-65
2023/02/17 04:39:31;;;;;;;53.78;25.40;;;8.50;99.90;;;;;;5014910;28;20486;-65
2023/02/17 04:41:57;;;;;;;49.50;25.10;;;8.40;99.90;;;;;;5010650;28;20036;-65
2023/02/17 04:44:23;;;;;;;55.53;25.27;;;8.40;99.90;;;;;;5013981;28;20571;-65
2023/02/17 04:46:48;;;;;;;50.05;24.27;;;8.50;99.90;;;;;;5015458;28;20034;-65
2023/02/17 04:49:14;;;;;;;51.95;24.63;;;8.50;99.90;;;;;;5010075;28;20032;-65
2023/02/17 04:51:40;;;;;;;47.72;22.95;;;8.60;99.90;;;;;;5010754;28;20121;-65
2023/02/17 04:54:06;;;;;;;45.22;23.02;;;8.60;99.90;;;;;;5010599;28;20041;-65
2023/02/17 04:56:31;;;;;;;46.25;23.88;;;8.60;99.90;;;;;;5012213;28;20039;-65
2023/02/17 04:58:57;;;;;;;48.63;23.08;;;8.60;99.90;;;;;;5013826;28;20029;-65
2023/02/17 05:01:23;;;;;;;47.28;22.90;;;8.50;99.90;;;;;;5014172;28;20045;-65
2023/02/17 05:03:48;;;;;;;53.03;24.17;;;8.50;99.90;;;;;;5009236;28;20030;-65
2023/02/17 05:06:14;;;;;;;44.47;21.75;;;8.60;99.90;;;;;;5009029;28;20546;-65
2023/02/17 05:08:40;;;;;;;50.08;22.30;;;8.50;99.90;;;;;;5011706;28;20041;-65
2023/02/17 05:11:09;;;;;;;47.55;22.15;;;8.50;99.90;;;;;;5011374;28;20041;-65
2023/02/17 05:13:34;;;;;;;44.92;21.83;;;8.60;99.90;;;;;;5002782;28;20034;-65
2023/02/17 05:16:00;;;;;;;42.63;21.38;;;8.70;99.90;;;;;;5016791;28;20140;-64
2023/02/17 05:18:26;;;;;;;46.70;22.75;;;8.60;99.90;;;;;;5015837;28;20137;-65
2023/02/17 05:20:52;;;;;;;43.97;22.83;;;8.50;99.90;;;;;;5013287;28;20148;-65
2023/02/17 05:23:18;;;;;;;39.65;21.05;;;8.60;99.90;;;;;;5014026;28;20072;-65
2023/02/17 05:25:43;;;;;;;45.03;22.02;;;8.60;99.90;;;;;;5015096;28;20046;-64
2023/02/17 05:28:09;;;;;;;44.80;22.60;;;8.60;99.90;;;;;;5011365;28;20038;-65
2023/02/17 05:30:35;;;;;;;44.28;22.23;;;8.50;99.90;;;;;;5016958;28;20084;-66
2023/02/17 05:33:01;;;;;;;42.30;20.75;;;8.50;99.90;;;;;;5014674;28;20033;-65
2023/02/17 05:35:26;;;;;;;40.05;21.42;;;8.50;99.90;;;;;;5010003;28;20799;-65
2023/02/17 05:37:52;;;;;;;45.30;21.20;;;8.50;99.90;;;;;;5016220;28;20037;-65
2023/02/17 05:40:18;;;;;;;38.97;20.63;;;8.50;99.90;;;;;;5013124;28;20078;-66
2023/02/17 05:42:44;;;;;;;38.92;20.70;;;8.70;99.90;;;;;;5013466;28;20034;-66
2023/02/17 05:45:10;;;;;;;38.35;19.73;;;8.70;99.90;;;;;;5011170;28;20038;-66
2023/02/17 05:47:35;;;;;;;40.88;20.63;;;8.80;99.90;;;;;;5013450;28;20010;-65
2023/02/17 05:50:02;;;;;;;34.75;18.80;;;8.80;99.90;;;;;;5018482;28;20547;-66
2023/02/17 05:52:28;;;;;;;32.65;18.38;;;8.80;99.90;;;;;;5008286;28;20124;-66
2023/02/17 05:54:53;;;;;;;40.00;19.38;;;8.80;99.90;;;;;;5014449;28;20129;-65
2023/02/17 05:57:19;;;;;;;37.97;18.60;;;8.80;99.90;;;;;;5015885;28;20044;-66
2023/02/17 05:59:45;;;;;;;32.78;17.52;;;8.90;99.90;;;;;;5012576;28;20064;-65
2023/02/17 06:02:10;;;;;;;32.05;17.55;;;8.90;99.90;;;;;;5004583;28;20034;-65
2023/02/17 06:04:36;;;;;;;32.58;17.23;;;8.90;99.90;;;;;;5011403;28;20021;-66
2023/02/17 06:07:02;;;;;;;33.03;17.63;;;9.00;99.90;;;;;;5016480;28;20446;-65
2023/02/17 06:09:28;;;;;;;34.25;17.23;;;9.00;99.90;;;;;;5010091;28;20120;-65
2023/02/17 06:11:53;;;;;;;32.83;17.38;;;9.20;99.90;;;;;;5010318;28;20135;-65
2023/02/17 06:14:19;;;;;;;31.63;16.95;;;9.20;99.90;;;;;;5015182;28;20037;-65
2023/02/17 06:16:45;;;;;;;31.08;16.27;;;9.30;99.90;;;;;;5012559;28;20026;-65
2023/02/17 06:19:11;;;;;;;32.50;16.63;;;9.20;99.90;;;;;;5015105;28;20044;-65
2023/02/17 06:21:36;;;;;;;31.13;17.70;;;9.10;99.90;;;;;;5012502;28;20033;-65
2023/02/17 06:24:02;;;;;;;30.05;15.85;;;9.10;99.90;;;;;;5013549;28;20049;-65
2023/02/17 06:26:28;;;;;;;27.13;15.43;;;9.10;99.90;;;;;;5012239;28;20040;-65
2023/02/17 06:28:54;;;;;;;27.13;16.80;;;9.20;99.90;;;;;;5009298;28;20060;-65
2023/02/17 06:31:20;;;;;;;27.27;14.75;;;9.30;99.90;;;;;;5006771;28;20033;-65
2023/02/17 06:33:46;;;;;;;27.85;16.10;;;9.30;99.90;;;;;;5009783;28;20140;-65
2023/02/17 06:36:11;;;;;;;28.63;15.38;;;9.40;99.90;;;;;;5011328;28;20033;-65
2023/02/17 06:38:37;;;;;;;28.52;16.35;;;9.40;99.90;;;;;;5010707;28;20030;-65
2023/02/17 06:41:03;;;;;;;28.50;15.32;;;9.30;99.90;;;;;;5013067;28;20095;-65
2023/02/17 06:43:29;;;;;;;27.27;15.63;;;9.30;99.90;;;;;;5011921;28;20100;-65
2023/02/17 06:45:54;;;;;;;28.60;15.30;;;9.30;99.90;;;;;;5009577;28;20033;-65
2023/02/17 06:48:20;;;;;;;25.90;14.95;;;9.40;99.90;;;;;;5014598;28;20045;-65
2023/02/17 06:50:48;;;;;;;24.30;14.52;;;9.40;99.90;;;;;;5016573;28;20036;-65
2023/02/17 06:53:14;;;;;;;29.25;15.98;;;9.50;99.90;;;;;;5016078;28;20052;-65
2023/02/17 06:55:39;;;;;;;27.52;15.15;;;9.60;99.90;;;;;;5013536;28;20030;-65
2023/02/17 06:58:07;;;;;;;29.45;15.27;;;9.60;99.90;;;;;;5016269;28;20892;-65
2023/02/17 07:00:33;;;;;;;30.20;13.70;;;9.40;99.90;;;;;;5019842;28;20041;-64
2023/02/17 07:02:58;;;;;;;26.73;14.93;;;9.40;99.90;;;;;;5014369;28;20138;-65
2023/02/17 07:05:24;;;;;;;22.73;14.30;;;9.40;99.90;;;;;;5017214;28;20033;-65
2023/02/17 07:07:52;;;;;;;28.33;15.63;;;9.50;99.90;;;;;;5013641;28;20040;-65
2023/02/17 07:10:18;;;;;;;23.98;13.98;;;9.60;99.90;;;;;;5018935;28;20505;-65
2023/02/17 07:12:43;;;;;;;23.75;14.27;;;9.60;99.90;;;;;;5014470;28;20604;-65
2023/02/17 07:15:09;;;;;;;26.30;14.55;;;9.60;99.90;;;;;;5020277;28;20029;-65
2023/02/17 07:17:35;;;;;;;25.20;14.43;;;9.60;99.90;;;;;;5020028;28;20057;-65
2023/02/17 07:20:01;;;;;;;22.25;13.18;;;9.40;99.90;;;;;;5014419;28;20041;-65
2023/02/17 07:22:26;;;;;;;25.08;15.05;;;9.40;99.90;;;;;;5015184;28;20030;-65
2023/02/17 07:24:52;;;;;;;26.77;13.77;;;9.40;99.90;;;;;;5014592;28;20447;-65
2023/02/17 07:27:18;;;;;;;21.08;12.07;;;9.50;99.90;;;;;;5010548;28;20041;-65
2023/02/17 07:29:44;;;;;;;23.48;12.38;;;9.60;99.90;;;;;;5016233;28;20099;-65
2023/02/17 07:32:09;;;;;;;20.70;13.13;;;9.60;99.90;;;;;;5014898;28;20041;-65
2023/02/17 07:34:37;;;;;;;25.70;14.55;;;9.60;99.90;;;;;;5016445;28;20073;-65
2023/02/17 07:37:03;;;;;;;20.85;12.48;;;9.50;99.90;;;;;;5013567;28;20064;-65
2023/02/17 07:39:28;;;;;;;20.55;13.38;;;9.50;99.90;;;;;;5012543;28;20037;-65
2023/02/17 07:41:59;;;;;;;24.17;13.70;;;9.60;99.90;;;;;;5019846;28;20029;-65
2023/02/17 07:44:26;;;;;;;22.30;12.65;;;9.70;99.90;;;;;;5012733;28;20032;-65
2023/02/17 07:46:52;;;;;;;21.42;13.10;;;9.80;99.90;;;;;;5012284;28;20029;-65
2023/02/17 07:49:18;;;;;;;23.65;13.27;;;9.90;99.90;;;;;;5014902;28;20037;-65
2023/02/17 07:51:44;;;;;;;18.77;12.05;;;9.80;99.90;;;;;;5014187;28;20030;-65
2023/02/17 07:54:12;;;;;;;19.77;11.85;;;9.90;99.90;;;;;;5009324;28;20537;-65
2023/02/17 07:56:38;;;;;;;18.33;11.60;;;9.90;99.90;;;;;;5017328;28;20113;-65
2023/02/17 07:59:08;;;;;;;20.70;12.30;;;10.00;99.90;;;;;;5016662;28;20033;-65
2023/02/17 08:01:34;;;;;;;17.83;11.15;;;9.90;99.90;;;;;;5011893;28;20056;-65
2023/02/17 08:03:59;;;;;;;17.45;11.27;;;9.90;99.90;;;;;;5012899;28;20502;-65
2023/02/17 08:06:25;;;;;;;18.52;11.85;;;9.90;99.90;;;;;;5012663;28;20916;-65
2023/02/17 08:14:25;;;;;;;22.20;12.30;;;10.10;99.90;;;;;;5008198;28;20037;-65
2023/02/17 08:16:51;;;;;;;18.40;11.25;;;10.00;99.90;;;;;;5014552;28;20871;-65
2023/02/17 08:19:17;;;;;;;20.92;12.18;;;10.00;99.90;;;;;;5014477;28;20048;-65
2023/02/17 08:21:43;;;;;;;18.20;11.02;;;9.90;99.90;;;;;;5013795;28;20030;-65
2023/02/17 08:24:09;;;;;;;18.45;12.15;;;10.00;99.90;;;;;;5008233;28;20084;-65
2023/02/17 08:26:35;;;;;;;17.25;11.15;;;10.00;99.90;;;;;;5011950;28;20116;-65
2023/02/17 08:29:01;;;;;;;17.40;11.95;;;10.00;99.90;;;;;;5014313;28;20144;-65
2023/02/17 08:31:30;;;;;;;16.20;11.30;;;10.00;99.90;;;;;;5009639;28;20033;-65
2023/02/17 08:33:56;;;;;;;18.33;11.90;;;10.00;99.90;;;;;;5007538;28;20045;-65
2023/02/17 08:36:23;;;;;;;18.75;11.80;;;10.00;99.90;;;;;;5009711;28;20037;-65
2023/02/17 08:38:53;;;;;;;18.67;11.45;;;10.20;99.90;;;;;;5013975;28;20112;-65
2023/02/17 08:41:29;;;;;;;19.95;11.10;;;10.30;99.90;;;;;;5009647;28;20036;-65
2023/02/17 08:43:56;;;;;;;17.83;11.10;;;10.50;99.90;;;;;;5010702;28;20040;-65
2023/02/17 08:46:22;;;;;;;19.52;11.95;;;10.40;99.90;;;;;;5007925;28;20040;-65
2023/02/17 08:48:48;;;;;;;19.13;11.77;;;10.30;99.90;;;;;;5010103;28;21061;-65
2023/02/17 08:51:16;;;;;;;18.90;12.23;;;10.20;99.90;;;;;;5013264;28;20042;-65
2023/02/17 08:53:43;;;;;;;23.02;13.48;;;10.20;99.90;;;;;;5012324;28;20653;-65
2023/02/17 08:56:08;;;;;;;17.38;11.73;;;10.20;99.90;;;;;;5009514;28;20037;-65
2023/02/17 08:58:35;;;;;;;20.00;13.05;;;10.20;99.90;;;;;;5010789;28;20552;-65
2023/02/17 09:01:01;;;;;;;20.05;13.57;;;10.30;99.90;;;;;;5014330;28;20038;-65
2023/02/17 09:03:27;;;;;;;20.33;12.95;;;10.30;99.90;;;;;;5009944;28;20048;-65
2023/02/17 09:05:57;;;;;;;24.08;14.15;;;10.20;99.90;;;;;;5016872;28;20033;-65
2023/02/17 09:08:24;;;;;;;21.73;12.98;;;10.10;99.90;;;;;;5007320;28;20042;-65
2023/02/17 09:10:49;;;;;;;25.75;14.65;;;10.10;99.90;;;;;;5014291;28;20028;-65
2023/02/17 09:13:16;;;;;;;23.73;14.27;;;10.20;99.90;;;;;;5012702;28;20029;-64
2023/02/17 09:15:42;;;;;;;24.35;14.07;;;10.00;99.90;;;;;;5014032;28;20475;-65
2023/02/17 09:18:08;;;;;;;22.95;14.50;;;10.00;99.90;;;;;;5017326;28;20163;-65
2023/02/17 09:20:34;;;;;;;22.63;14.45;;;10.10;99.90;;;;;;5015908;28;20067;-65
2023/02/17 09:23:00;;;;;;;23.38;14.80;;;10.00;99.90;;;;;;5012410;28;20059;-65
2023/02/17 09:25:26;;;;;;;27.20;15.40;;;10.10;99.90;;;;;;5009191;28;20128;-65
2023/02/17 09:27:52;;;;;;;23.55;14.90;;;10.00;99.90;;;;;;5010395;28;20041;-65
2023/02/17 09:30:18;;;;;;;25.20;14.68;;;10.00;99.90;;;;;;5017692;28;20041;-65
2023/02/17 09:32:44;;;;;;;23.70;14.93;;;10.00;99.90;;;;;;5018256;28;20036;-64
2023/02/17 09:35:14;;;;;;;22.35;14.75;;;10.00;99.90;;;;;;5017496;28;20044;-65
2023/02/17 09:37:40;;;;;;;23.80;14.55;;;10.10;99.90;;;;;;5011886;28;20132;-65
2023/02/17 09:40:07;;;;;;;25.98;14.48;;;10.10;99.90;;;;;;5012557;28;20043;-65
2023/02/17 09:42:38;;;;;;;23.08;14.48;;;10.00;99.90;;;;;;5012369;28;20136;-66
2023/02/17 09:45:10;;;;;;;26.30;15.95;;;10.00;99.90;;;;;;5016041;28;20033;-65
2023/02/17 09:47:50;;;;;;;26.23;15.20;;;10.00;99.90;;;;;;5017410;28;20025;-66
2023/02/17 09:50:22;;;;;;;26.45;15.10;;;10.00;99.90;;;;;;5009411;28;20037;-65
2023/02/17 09:53:05;;;;;;;23.92;14.60;;;10.00;99.90;;;;;;5012073;28;20038;-65
2023/02/17 09:55:37;;;;;;;22.67;15.07;;;10.10;99.90;;;;;;5010299;28;20086;-65
2023/02/17 09:58:07;;;;;;;27.42;15.52;;;10.10;99.90;;;;;;5011309;28;20505;-65
2023/02/17 10:01:11;;;;;;;26.00;16.17;;;10.20;99.90;;;;;;5013928;28;20505;-65
2023/02/17 10:03:43;;;;;;;26.10;15.70;;;10.10;99.90;;;;;;5008628;28;20042;-66
2023/02/17 10:06:38;;;;;;;23.40;15.00;;;10.20;99.90;;;;;;5011309;28;20040;-65
2023/02/17 10:09:23;;;;;;;25.35;14.95;;;10.30;99.90;;;;;;5007911;28;20045;-65
2023/02/17 10:12:05;;;;;;;27.92;15.52;;;10.20;99.90;;;;;;5010285;28;20040;-65
2023/02/17 10:15:03;;;;;;;24.65;15.80;;;10.20;99.90;;;;;;5011640;28;20026;-65
2023/02/17 10:17:46;;;;;;;26.98;15.45;;;10.20;99.90;;;;;;5013848;28;20831;-65
2023/02/17 10:20:21;;;;;;;27.52;15.18;;;10.30;99.90;;;;;;5011561;28;20859;-65
2023/02/17 10:22:53;;;;;;;26.25;16.10;;;10.20;99.90;;;;;;5009447;28;20057;-65
2023/02/17 10:25:43;;;;;;;27.10;15.40;;;10.30;99.90;;;;;;5010730;28;20398;-65
2023/02/17 10:28:16;;;;;;;27.67;16.55;;;10.30;99.90;;;;;;5011894;28;20069;-65
2023/02/17 10:30:50;;;;;;;26.20;15.77;;;10.30;99.90;;;;;;5010348;28;20025;-65
2023/02/17 10:33:38;;;;;;;25.15;16.73;;;10.40;99.90;;;;;;5008958;28;20049;-66
2023/02/17 10:36:22;;;;;;;25.30;15.60;;;10.40;99.90;;;;;;5016891;28;20064;-66
2023/02/17 10:39:07;;;;;;;23.85;14.98;;;10.40;99.90;;;;;;5013994;28;20033;-66
2023/02/17 10:41:36;;;;;;;27.95;16.75;;;10.50;99.90;;;;;;5014381;28;20038;-65
2023/02/17 10:44:08;;;;;;;23.73;14.65;;;10.40;99.90;;;;;;5011715;28;20203;-65
2023/02/17 10:46:34;;;;;;;27.58;16.50;;;10.50;99.90;;;;;;5009711;28;20410;-65
2023/02/17 10:49:00;;;;;;;23.27;15.13;;;10.50;99.90;;;;;;5017509;28;20092;-66
2023/02/17 10:51:28;;;;;;;25.67;16.50;;;10.60;99.90;;;;;;5017143;28;20092;-65
2023/02/17 10:54:04;;;;;;;23.88;15.45;;;10.70;99.90;;;;;;5010920;28;20080;-65
2023/02/17 10:56:43;;;;;;;24.20;14.30;;;10.80;99.90;;;;;;5010104;28;20785;-64
2023/02/17 10:59:28;;;;;;;25.67;15.93;;;10.80;99.90;;;;;;5015492;28;20048;-64
2023/02/17 11:02:16;;;;;;;19.58;13.68;;;10.90;99.90;;;;;;5010557;28;20036;-63
2023/02/17 11:04:49;;;;;;;21.98;12.82;;;11.00;99.90;;;;;;5014271;28;20029;-64
2023/02/17 11:07:18;;;;;;;17.92;12.30;;;10.90;99.90;;;;;;5016373;28;20025;-63
2023/02/17 11:09:50;;;;;;;21.80;14.60;;;11.00;99.90;;;;;;5022986;28;20037;-63
2023/02/17 11:12:21;;;;;;;19.90;14.07;;;11.10;99.90;;;;;;5019484;28;20567;-63
2023/02/17 11:14:53;;;;;;;26.02;12.63;;;11.30;99.90;;;;;;5012182;28;20861;-63
2023/02/17 11:17:22;;;;;;;18.65;12.93;;;11.40;99.90;;;;;;5010857;28;20037;-63
2023/02/17 11:19:58;;;;;;;18.52;12.43;;;11.40;99.90;;;;;;5011953;28;20022;-63
2023/02/17 11:23:00;;;;;;;22.25;12.40;;;11.30;99.90;;;;;;5009243;28;20117;-63
2023/02/17 11:25:31;;;;;;;18.08;11.85;;;11.40;99.90;;;;;;4971403;28;20045;-63
2023/02/17 11:27:59;;;;;;;16.17;11.18;;;11.40;99.90;;;;;;5011777;28;20095;-63
2023/02/17 11:30:28;;;;;;;16.42;10.52;;;11.50;99.90;;;;;;5010810;28;20397;-64
2023/02/17 11:32:54;;;;;;;15.32;10.18;;;11.50;99.90;;;;;;5011014;28;20038;-63
2023/02/17 11:35:29;;;;;;;16.30;9.80;;;11.40;99.90;;;;;;5012097;28;20044;-64
2023/02/17 11:38:02;;;;;;;16.85;10.80;;;11.50;99.90;;;;;;5013473;28;20029;-63
2023/02/17 11:40:32;;;;;;;16.15;10.75;;;11.50;99.90;;;;;;5016579;28;20124;-63
2023/02/17 11:43:04;;;;;;;15.05;10.05;;;11.60;99.90;;;;;;5018247;28;20037;-65
2023/02/17 11:45:46;;;;;;;25.48;16.75;;;11.60;99.90;;;;;;5013898;28;20833;-64
2023/02/17 11:48:44;;;;;;;19.00;13.00;;;11.70;99.90;;;;;;5009894;28;20514;-64
2023/02/17 11:51:17;;;;;;;18.50;11.93;;;11.70;99.90;;;;;;5012486;28;20033;-64
2023/02/17 11:53:58;;;;;;;19.55;12.48;;;11.80;99.90;;;;;;5008003;28;20033;-63
2023/02/17 11:56:34;;;;;;;12.90;8.70;;;11.90;99.90;;;;;;5016546;28;20109;-63
2023/02/17 11:59:00;;;;;;;11.05;8.13;;;11.90;99.90;;;;;;5013270;28;20088;-64
2023/02/17 12:01:34;;;;;;;13.02;8.45;;;11.90;99.90;;;;;;5013593;28;20022;-63
2023/02/17 12:04:18;;;;;;;15.30;8.45;;;11.80;99.90;;;;;;5011863;28;20038;-64
2023/02/17 12:07:13;;;;;;;10.35;7.85;;;11.90;99.90;;;;;;5017660;28;20018;-63
2023/02/17 12:09:42;;;;;;;11.63;7.70;;;11.90;99.90;;;;;;5017199;28;20724;-64
2023/02/17 12:12:38;;;;;;;10.98;7.55;;;11.90;99.90;;;;;;5020859;28;20071;-64
2023/02/17 12:15:27;;;;;;;11.68;7.25;;;12.10;99.90;;;;;;5011797;28;20103;-64
2023/02/17 12:18:12;;;;;;;11.57;7.38;;;12.00;99.90;;;;;;5014680;28;20029;-64
2023/02/17 12:20:48;;;;;;;10.82;7.38;;;12.00;99.90;;;;;;5012829;28;20033;-64
2023/02/17 12:23:45;;;;;;;10.15;7.35;;;12.10;99.90;;;;;;5013748;28;20053;-63
2023/02/17 12:26:36;;;;;;;8.88;6.50;;;12.20;99.90;;;;;;5019766;28;20612;-63
2023/02/17 12:29:26;;;;;;;9.18;6.30;;;12.40;99.90;;;;;;5013534;28;20269;-64
2023/02/17 12:32:05;;;;;;;13.55;10.30;;;12.40;99.90;;;;;;5011459;28;20064;-64
2023/02/17 12:34:38;;;;;;;22.08;13.10;;;12.50;99.90;;;;;;5012938;28;20058;-64
2023/02/17 12:37:06;;;;;;;10.57;6.65;;;12.60;99.90;;;;;;5013290;28;20037;-64
2023/02/17 12:39:44;;;;;;;19.52;13.68;;;12.70;99.90;;;;;;5007650;28;20037;-64
2023/02/17 12:42:25;;;;;;;22.45;13.98;;;12.80;99.90;;;;;;5014026;28;20034;-64
2023/02/17 12:45:01;;;;;;;11.48;7.68;;;12.80;99.90;;;;;;5019910;28;20025;-64
2023/02/17 12:47:58;;;;;;;17.60;10.48;;;12.80;99.90;;;;;;5016166;28;20115;-64
2023/02/17 12:50:37;;;;;;;;;;;12.80;99.90;;;;;;5016050;28;20075;-64
2023/02/17 12:53:12;;;;;;;9.43;6.35;;;12.90;99.90;;;;;;5012881;28;19917;-63
2023/02/17 12:56:15;;;;;;;7.87;5.37;;;13.00;99.90;;;;;;5011241;28;20034;-65